createdAt,value
2023-04-30T00:00:21.488Z,7.75
2023-04-30T00:01:53.122Z,8.23
2023-04-30T00:03:26.299Z,7.95
2023-04-30T00:04:57.930Z,7.90
2023-04-30T00:06:29.689Z,7.85
2023-04-30T00:08:01.373Z,8.00
2023-04-30T00:09:32.963Z,7.57
2023-04-30T00:11:04.951Z,8.18
2023-04-30T00:12:36.669Z,8.10
2023-04-30T00:14:08.263Z,8.10
2023-04-30T00:15:39.878Z,8.43
2023-04-30T00:17:11.509Z,7.47
2023-04-30T00:18:44.605Z,8.07
2023-04-30T00:20:16.436Z,7.88
2023-04-30T00:21:48.170Z,7.57
2023-04-30T00:23:19.799Z,8.30
2023-04-30T00:24:51.948Z,7.57
2023-04-30T00:26:23.633Z,8.32
2023-04-30T00:27:55.240Z,8.05
2023-04-30T00:29:26.882Z,7.97
2023-04-30T00:30:58.505Z,8.30
2023-04-30T00:32:30.288Z,8.50
2023-04-30T00:34:03.292Z,8.25
2023-04-30T00:35:34.854Z,8.80
2023-04-30T00:37:06.501Z,8.43
2023-04-30T00:38:38.156Z,7.90
2023-04-30T00:40:10.814Z,8.20
2023-04-30T00:41:42.483Z,7.93
2023-04-30T00:43:14.097Z,8.30
2023-04-30T00:44:45.738Z,9.00
2023-04-30T00:46:17.473Z,8.32
2023-04-30T00:47:49.350Z,8.25
2023-04-30T00:49:22.386Z,8.13
2023-04-30T00:50:53.991Z,8.05
2023-04-30T00:52:25.821Z,7.40
2023-04-30T00:53:57.585Z,7.63
2023-04-30T00:55:29.178Z,7.65
2023-04-30T00:57:00.823Z,7.75
2023-04-30T00:58:32.435Z,7.70
2023-04-30T01:00:05.002Z,8.13
2023-04-30T01:01:36.643Z,8.52
2023-04-30T01:03:08.470Z,8.40
2023-04-30T01:04:41.637Z,8.70
2023-04-30T01:06:13.227Z,7.88
2023-04-30T01:07:46.331Z,7.75
2023-04-30T01:09:17.930Z,8.05
2023-04-30T01:10:54.055Z,9.05
2023-04-30T01:12:32.013Z,8.50
2023-04-30T01:14:08.329Z,8.65
2023-04-30T01:15:43.158Z,9.00
2023-04-30T01:17:18.427Z,9.15
2023-04-30T01:18:52.649Z,8.70
2023-04-30T01:20:26.209Z,9.48
2023-04-30T01:21:57.925Z,9.35
2023-04-30T01:23:40.071Z,8.23
2023-04-30T01:25:21.326Z,8.80
2023-04-30T01:27:01.523Z,8.73
2023-04-30T01:28:34.888Z,9.30
2023-04-30T01:30:07.405Z,8.60
2023-04-30T01:31:39.094Z,9.20
2023-04-30T01:33:10.902Z,9.07
2023-04-30T01:34:42.834Z,9.05
2023-04-30T01:36:21.662Z,8.40
2023-04-30T01:38:00.184Z,8.77
2023-04-30T01:39:50.775Z,10.02
2023-04-30T01:41:28.900Z,9.80
2023-04-30T01:43:04.790Z,9.70
2023-04-30T01:44:45.375Z,9.63
2023-04-30T01:46:20.355Z,9.20
2023-04-30T01:47:53.813Z,9.07
2023-04-30T01:49:30.233Z,8.80
2023-04-30T01:51:04.968Z,9.38
2023-04-30T01:52:42.295Z,8.82
2023-04-30T01:54:17.374Z,9.32
2023-04-30T01:55:52.002Z,8.65
2023-04-30T01:57:28.924Z,9.35
2023-04-30T01:59:00.830Z,8.73
2023-04-30T02:00:33.748Z,8.88
2023-04-30T02:02:06.309Z,9.35
2023-04-30T02:03:38.228Z,9.73
2023-04-30T02:05:10.042Z,8.60
2023-04-30T02:06:41.809Z,8.77
2023-04-30T02:08:13.440Z,9.90
2023-04-30T02:09:45.046Z,8.45
2023-04-30T02:11:16.678Z,8.73
2023-04-30T02:12:48.281Z,8.43
2023-04-30T02:14:19.891Z,8.85
2023-04-30T02:15:52.894Z,9.05
2023-04-30T02:17:24.603Z,9.52
2023-04-30T02:18:56.254Z,8.93
2023-04-30T02:20:27.898Z,9.25
2023-04-30T02:21:59.497Z,9.38
2023-04-30T02:23:31.080Z,8.52
2023-04-30T02:25:02.710Z,8.43
2023-04-30T02:26:34.333Z,8.52
2023-04-30T02:28:06.150Z,8.32
2023-04-30T02:29:37.766Z,8.30
2023-04-30T02:31:10.970Z,8.48
2023-04-30T02:32:42.672Z,8.80
2023-04-30T02:34:14.442Z,8.02
2023-04-30T02:35:46.374Z,8.23
2023-04-30T02:37:17.958Z,7.45
2023-04-30T02:38:49.568Z,7.63
2023-04-30T02:40:21.137Z,8.20
2023-04-30T02:41:52.767Z,7.97
2023-04-30T02:43:24.357Z,7.47
2023-04-30T02:44:56.043Z,7.97
2023-04-30T02:46:28.966Z,7.70
2023-04-30T02:48:01.025Z,7.28
2023-04-30T02:49:32.703Z,7.18
2023-04-30T02:51:04.707Z,7.43
2023-04-30T02:52:36.354Z,8.02
2023-04-30T02:54:08.115Z,7.78
2023-04-30T02:55:39.702Z,7.05
2023-04-30T02:57:11.811Z,7.35
2023-04-30T02:58:43.452Z,7.55
2023-04-30T03:00:15.488Z,7.97
2023-04-30T03:01:48.809Z,7.22
2023-04-30T03:03:20.960Z,7.47
2023-04-30T03:04:52.777Z,7.65
2023-04-30T03:06:24.447Z,8.05
2023-04-30T03:07:56.108Z,7.43
2023-04-30T03:09:27.846Z,6.78
2023-04-30T03:10:59.789Z,7.35
2023-04-30T03:12:31.458Z,7.38
2023-04-30T03:14:03.379Z,7.07
2023-04-30T03:15:34.945Z,7.50
2023-04-30T03:17:07.882Z,7.43
2023-04-30T03:18:39.458Z,7.60
2023-04-30T03:20:11.833Z,8.23
2023-04-30T03:21:43.460Z,8.10
2023-04-30T03:23:15.113Z,7.22
2023-04-30T03:24:46.716Z,7.30
2023-04-30T03:26:19.348Z,7.55
2023-04-30T03:27:50.970Z,7.70
2023-04-30T03:29:22.559Z,7.95
2023-04-30T03:30:54.169Z,7.55
2023-04-30T03:32:27.176Z,7.53
2023-04-30T03:33:58.859Z,7.18
2023-04-30T03:35:30.470Z,7.70
2023-04-30T03:37:02.259Z,6.78
2023-04-30T03:38:34.028Z,6.95
2023-04-30T03:40:07.091Z,7.90
2023-04-30T03:41:38.706Z,6.97
2023-04-30T03:43:10.422Z,7.75
2023-04-30T03:44:42.026Z,7.55
2023-04-30T03:46:13.955Z,7.80
2023-04-30T03:47:47.045Z,7.47
2023-04-30T03:49:18.762Z,7.47
2023-04-30T03:50:50.525Z,7.82
2023-04-30T03:52:22.542Z,7.40
2023-04-30T03:53:54.177Z,6.95
2023-04-30T03:55:26.021Z,7.55
2023-04-30T03:56:57.573Z,8.30
2023-04-30T03:58:29.221Z,7.50
2023-04-30T04:00:00.826Z,8.30
2023-04-30T04:01:32.477Z,6.88
2023-04-30T04:03:05.617Z,7.90
2023-04-30T04:04:37.441Z,8.07
2023-04-30T04:06:09.105Z,8.30
2023-04-30T04:07:41.286Z,7.50
2023-04-30T04:09:13.021Z,8.48
2023-04-30T04:10:44.615Z,8.57
2023-04-30T04:12:16.218Z,8.00
2023-04-30T04:13:47.857Z,8.65
2023-04-30T04:15:19.612Z,8.63
2023-04-30T04:16:51.276Z,8.90
2023-04-30T04:18:24.293Z,8.88
2023-04-30T04:19:56.321Z,8.00
2023-04-30T04:21:28.869Z,8.30
2023-04-30T04:23:00.572Z,8.65
2023-04-30T04:24:32.331Z,9.07
2023-04-30T04:26:03.945Z,9.55
2023-04-30T04:27:35.604Z,8.57
2023-04-30T04:29:09.445Z,8.43
2023-04-30T04:30:41.174Z,9.05
2023-04-30T04:32:14.567Z,8.65
2023-04-30T04:33:47.649Z,9.05
2023-04-30T04:35:19.383Z,8.98
2023-04-30T04:36:51.033Z,9.20
2023-04-30T04:38:23.049Z,8.18
2023-04-30T04:39:54.908Z,9.20
2023-04-30T04:41:26.868Z,8.63
2023-04-30T04:42:58.663Z,8.70
2023-04-30T04:44:30.301Z,9.15
2023-04-30T04:46:02.066Z,9.05
2023-04-30T04:47:33.831Z,9.45
2023-04-30T04:49:06.805Z,8.65
2023-04-30T04:50:38.438Z,10.27
2023-04-30T04:52:10.073Z,9.15
2023-04-30T04:53:41.746Z,9.88
2023-04-30T04:55:13.362Z,9.48
2023-04-30T04:56:44.969Z,9.73
2023-04-30T04:58:16.588Z,9.63
2023-04-30T04:59:48.203Z,9.60
2023-04-30T05:01:19.852Z,10.85
2023-04-30T05:02:51.552Z,10.60
2023-04-30T05:04:24.738Z,10.02
2023-04-30T05:05:56.592Z,10.55
2023-04-30T05:07:28.367Z,11.07
2023-04-30T05:08:59.952Z,10.48
2023-04-30T05:10:31.645Z,10.02
2023-04-30T05:12:03.980Z,10.45
2023-04-30T05:13:35.580Z,10.60
2023-04-30T05:15:08.162Z,9.90
2023-04-30T05:16:40.313Z,9.70
2023-04-30T05:18:12.008Z,10.77
2023-04-30T05:19:47.561Z,10.30
2023-04-30T05:21:19.197Z,10.43
2023-04-30T05:22:50.864Z,11.13
2023-04-30T05:24:22.484Z,9.90
2023-04-30T05:25:54.973Z,9.95
2023-04-30T05:27:27.360Z,10.07
2023-04-30T05:28:58.999Z,9.90
2023-04-30T05:30:30.690Z,10.82
2023-04-30T05:32:02.398Z,10.50
2023-04-30T05:33:34.084Z,9.70
2023-04-30T05:35:07.897Z,9.82
2023-04-30T05:36:39.541Z,9.75
2023-04-30T05:38:11.252Z,10.38
2023-04-30T05:39:42.910Z,9.98
2023-04-30T05:41:14.648Z,10.05
2023-04-30T05:42:46.326Z,10.07
2023-04-30T05:44:17.891Z,10.77
2023-04-30T05:45:49.548Z,9.75
2023-04-30T05:47:21.211Z,10.20
2023-04-30T05:48:52.900Z,10.15
2023-04-30T05:50:25.945Z,9.68
2023-04-30T05:51:57.596Z,10.05
2023-04-30T05:53:29.189Z,10.00
2023-04-30T05:55:00.787Z,10.80
2023-04-30T05:56:32.400Z,9.70
2023-04-30T05:58:04.019Z,10.02
2023-04-30T05:59:35.693Z,9.93
2023-04-30T06:01:10.146Z,11.80
2023-04-30T06:02:41.805Z,10.02
2023-04-30T06:04:13.482Z,10.55
2023-04-30T06:05:46.518Z,10.77
2023-04-30T06:07:18.127Z,10.90
2023-04-30T06:08:49.730Z,11.50
2023-04-30T06:10:21.394Z,10.80
2023-04-30T06:11:53.148Z,10.00
2023-04-30T06:13:24.729Z,10.73
2023-04-30T06:14:56.346Z,11.77
2023-04-30T06:16:28.037Z,11.80
2023-04-30T06:17:59.924Z,12.13
2023-04-30T06:19:31.577Z,12.10
2023-04-30T06:21:04.550Z,11.05
2023-04-30T06:22:36.279Z,12.73
2023-04-30T06:24:08.003Z,11.82
2023-04-30T06:25:39.667Z,12.77
2023-04-30T06:27:11.472Z,11.80
2023-04-30T06:28:43.228Z,11.55
2023-04-30T06:30:15.080Z,11.65
2023-04-30T06:31:46.842Z,11.35
2023-04-30T06:33:18.610Z,10.60
2023-04-30T06:34:50.714Z,11.63
2023-04-30T06:36:23.890Z,12.05
2023-04-30T06:37:55.504Z,11.57
2023-04-30T06:39:27.128Z,11.65
2023-04-30T06:40:58.886Z,10.23
2023-04-30T06:42:34.432Z,11.30
2023-04-30T06:44:06.358Z,10.40
2023-04-30T06:45:38.117Z,10.38
2023-04-30T06:47:09.699Z,10.88
2023-04-30T06:48:41.283Z,11.45
2023-04-30T06:50:12.963Z,11.55
2023-04-30T06:51:45.933Z,9.98
2023-04-30T06:53:17.563Z,10.70
2023-04-30T06:54:49.206Z,10.25
2023-04-30T06:56:22.015Z,9.95
2023-04-30T06:57:54.462Z,10.32
2023-04-30T06:59:26.058Z,10.25
2023-04-30T07:00:58.263Z,9.77
2023-04-30T07:02:30.067Z,9.57
2023-04-30T07:04:02.114Z,10.15
2023-04-30T07:05:33.871Z,9.68
2023-04-30T07:07:07.335Z,9.77
2023-04-30T07:08:41.103Z,10.05
2023-04-30T07:10:13.486Z,9.90
2023-04-30T07:11:45.382Z,10.10
2023-04-30T07:13:17.148Z,10.45
2023-04-30T07:14:48.853Z,10.15
2023-04-30T07:16:20.587Z,9.20
2023-04-30T07:17:52.233Z,9.77
2023-04-30T07:19:25.394Z,10.32
2023-04-30T07:20:57.063Z,9.32
2023-04-30T07:22:30.626Z,9.60
2023-04-30T07:24:02.226Z,9.05
2023-04-30T07:25:37.951Z,9.98
2023-04-30T07:27:11.101Z,9.68
2023-04-30T07:28:42.714Z,9.75
2023-04-30T07:30:14.656Z,10.23
2023-04-30T07:31:46.367Z,9.30
2023-04-30T07:33:18.124Z,9.60
2023-04-30T07:34:49.871Z,9.70
2023-04-30T07:36:21.621Z,9.40
2023-04-30T07:37:54.852Z,9.40
2023-04-30T07:39:26.608Z,9.23
2023-04-30T07:41:00.080Z,8.65
2023-04-30T07:42:31.711Z,10.10
2023-04-30T07:44:03.342Z,9.60
2023-04-30T07:45:35.892Z,8.65
2023-04-30T07:47:07.676Z,8.38
2023-04-30T07:48:39.521Z,9.30
2023-04-30T07:50:12.366Z,8.27
2023-04-30T07:51:44.046Z,8.98
2023-04-30T07:53:17.092Z,7.97
2023-04-30T07:54:48.762Z,8.30
2023-04-30T07:56:21.563Z,8.07
2023-04-30T07:57:53.581Z,8.00
2023-04-30T07:59:25.429Z,7.68
2023-04-30T08:00:57.168Z,7.43
2023-04-30T08:02:28.993Z,6.82
2023-04-30T08:04:01.468Z,7.40
2023-04-30T08:05:33.179Z,7.10
2023-04-30T08:07:04.780Z,6.70
2023-04-30T08:08:38.067Z,6.60
2023-04-30T08:10:10.354Z,6.80
2023-04-30T08:11:41.988Z,6.82
2023-04-30T08:13:13.667Z,6.55
2023-04-30T08:14:45.376Z,6.47
2023-04-30T08:16:17.123Z,6.60
2023-04-30T08:17:49.260Z,6.00
2023-04-30T08:19:21.119Z,6.22
2023-04-30T08:20:52.725Z,5.88
2023-04-30T08:22:24.540Z,5.60
2023-04-30T08:23:57.537Z,5.82
2023-04-30T08:25:29.251Z,5.90
2023-04-30T08:27:01.641Z,6.20
2023-04-30T08:28:33.309Z,5.95
2023-04-30T08:30:07.714Z,6.00
2023-04-30T08:31:39.365Z,5.55
2023-04-30T08:33:11.123Z,5.40
2023-04-30T08:34:43.619Z,5.63
2023-04-30T08:36:15.222Z,5.80
2023-04-30T08:37:46.820Z,5.60
2023-04-30T08:39:19.756Z,5.55
2023-04-30T08:41:02.819Z,6.38
2023-04-30T08:42:36.276Z,6.10
2023-04-30T08:44:08.588Z,6.00
2023-04-30T08:45:41.664Z,5.50
2023-04-30T08:47:14.252Z,5.80
2023-04-30T08:48:45.836Z,5.45
2023-04-30T08:50:17.723Z,6.70
2023-04-30T08:51:49.407Z,5.90
2023-04-30T08:53:21.625Z,5.35
2023-04-30T08:54:54.617Z,5.65
2023-04-30T08:56:26.326Z,5.93
2023-04-30T08:57:57.983Z,5.32
2023-04-30T08:59:29.655Z,5.95
2023-04-30T09:01:01.471Z,5.97
2023-04-30T09:02:33.559Z,5.68
2023-04-30T09:04:07.059Z,5.20
2023-04-30T09:05:38.787Z,5.40
2023-04-30T09:07:11.889Z,4.93
2023-04-30T09:08:43.965Z,5.07
2023-04-30T09:10:17.790Z,5.30
2023-04-30T09:11:49.397Z,5.32
2023-04-30T09:13:20.998Z,4.90
2023-04-30T09:14:59.608Z,4.53
2023-04-30T09:16:45.741Z,4.72
2023-04-30T09:18:18.361Z,4.80
2023-04-30T09:19:50.309Z,4.90
2023-04-30T09:21:31.836Z,4.57
2023-04-30T09:23:07.553Z,5.30
2023-04-30T09:24:46.087Z,5.32
2023-04-30T09:26:21.414Z,4.55
2023-04-30T09:28:07.734Z,4.40
2023-04-30T09:29:39.397Z,4.53
2023-04-30T09:31:19.251Z,4.85
2023-04-30T09:32:55.146Z,4.50
2023-04-30T09:34:33.879Z,4.18
2023-04-30T09:36:09.000Z,4.25
2023-04-30T09:37:41.101Z,4.30
2023-04-30T09:39:15.606Z,4.25
2023-04-30T09:40:48.080Z,4.45
2023-04-30T09:42:21.195Z,3.90
2023-04-30T09:43:53.467Z,4.43
2023-04-30T09:45:25.082Z,4.38
2023-04-30T09:46:57.688Z,4.47
2023-04-30T09:48:29.564Z,4.57
2023-04-30T09:50:01.331Z,4.30
2023-04-30T09:51:33.490Z,4.00
2023-04-30T09:53:06.669Z,4.50
2023-04-30T09:54:38.555Z,4.30
2023-04-30T09:56:10.500Z,4.43
2023-04-30T09:57:43.540Z,4.10
2023-04-30T09:59:15.602Z,4.20
2023-04-30T10:00:49.522Z,4.20
2023-04-30T10:02:22.998Z,4.20
2023-04-30T10:03:55.675Z,3.78
2023-04-30T10:05:27.468Z,4.10
2023-04-30T10:06:59.357Z,4.25
2023-04-30T10:08:32.083Z,4.00
2023-04-30T10:10:07.008Z,4.18
2023-04-30T10:11:38.729Z,3.78
2023-04-30T10:13:14.381Z,3.90
2023-04-30T10:14:51.611Z,4.20
2023-04-30T10:16:30.455Z,3.95
2023-04-30T10:18:02.916Z,4.28
2023-04-30T10:19:34.796Z,3.65
2023-04-30T10:21:10.362Z,3.50
2023-04-30T10:22:43.711Z,3.60
2023-04-30T10:24:18.286Z,4.00
2023-04-30T10:25:50.752Z,4.25
2023-04-30T10:27:22.432Z,4.25
2023-04-30T10:28:56.208Z,4.15
2023-04-30T10:30:27.922Z,4.00
2023-04-30T10:31:59.621Z,4.32
2023-04-30T10:33:34.820Z,3.83
2023-04-30T10:35:10.870Z,3.70
2023-04-30T10:36:44.806Z,4.22
2023-04-30T10:38:23.877Z,4.00
2023-04-30T10:39:56.121Z,3.92
2023-04-30T10:41:30.625Z,3.58
2023-04-30T10:43:02.292Z,3.50
2023-04-30T10:44:36.451Z,3.63
2023-04-30T10:46:08.416Z,3.50
2023-04-30T10:47:42.416Z,3.42
2023-04-30T10:49:14.651Z,3.70
2023-04-30T10:50:46.754Z,3.45
2023-04-30T10:52:26.599Z,3.97
2023-04-30T10:53:58.374Z,3.45
2023-04-30T10:55:30.948Z,3.47
2023-04-30T10:57:13.366Z,3.42
2023-04-30T10:58:45.546Z,3.60
2023-04-30T11:00:25.745Z,3.60
2023-04-30T11:01:58.728Z,3.40
2023-04-30T11:03:30.951Z,3.80
2023-04-30T11:05:09.916Z,3.55
2023-04-30T11:06:55.845Z,3.60
2023-04-30T11:08:34.359Z,3.50
2023-04-30T11:10:08.395Z,3.63
2023-04-30T11:11:39.988Z,3.78
2023-04-30T11:13:11.598Z,3.30
2023-04-30T11:14:44.092Z,3.20
2023-04-30T11:16:17.437Z,3.42
2023-04-30T11:17:49.664Z,3.33
2023-04-30T11:19:22.491Z,3.17
2023-04-30T11:20:54.967Z,3.45
2023-04-30T11:22:26.883Z,3.47
2023-04-30T11:24:03.424Z,3.20
2023-04-30T11:25:39.849Z,3.53
2023-04-30T11:27:12.545Z,3.40
2023-04-30T11:28:51.345Z,3.53
2023-04-30T11:30:23.237Z,3.70
2023-04-30T11:31:56.351Z,3.25
2023-04-30T11:33:28.846Z,3.10
2023-04-30T11:35:00.863Z,3.10
2023-04-30T11:36:34.054Z,2.90
2023-04-30T11:38:05.628Z,3.30
2023-04-30T11:39:37.237Z,3.38
2023-04-30T11:41:12.799Z,3.33
2023-04-30T11:42:46.140Z,2.95
2023-04-30T11:44:25.694Z,3.28
2023-04-30T11:46:06.910Z,3.20
2023-04-30T11:47:41.477Z,3.05
2023-04-30T11:49:13.196Z,3.20
2023-04-30T11:50:45.128Z,3.00
2023-04-30T11:52:21.128Z,2.72
2023-04-30T11:53:52.956Z,3.00
2023-04-30T11:55:25.560Z,3.30
2023-04-30T11:57:03.844Z,3.20
2023-04-30T11:58:37.924Z,3.25
2023-04-30T12:00:13.678Z,3.17
2023-04-30T12:01:45.377Z,3.10
2023-04-30T12:03:18.453Z,3.40
2023-04-30T12:04:50.389Z,3.38
2023-04-30T12:06:22.826Z,3.45
2023-04-30T12:07:56.023Z,3.20
2023-04-30T12:09:27.665Z,3.10
2023-04-30T12:10:59.440Z,3.00
2023-04-30T12:12:31.163Z,2.80
2023-04-30T12:14:04.198Z,3.20
2023-04-30T12:15:37.116Z,2.90
2023-04-30T12:17:08.803Z,3.20
2023-04-30T12:18:41.805Z,2.92
2023-04-30T12:20:14.970Z,2.90
2023-04-30T12:21:47.433Z,2.88
2023-04-30T12:23:19.421Z,3.10
2023-04-30T12:24:51.127Z,2.78
2023-04-30T12:26:22.773Z,3.10
2023-04-30T12:27:54.496Z,2.90
2023-04-30T12:29:26.169Z,2.45
2023-04-30T12:30:57.878Z,3.15
2023-04-30T12:32:29.680Z,2.90
2023-04-30T12:34:07.441Z,2.78
2023-04-30T12:35:42.359Z,3.00
2023-04-30T12:37:15.486Z,2.80
2023-04-30T12:38:47.329Z,2.85
2023-04-30T12:40:19.745Z,2.60
2023-04-30T12:41:51.671Z,2.50
2023-04-30T12:43:23.525Z,2.90
2023-04-30T12:44:55.152Z,2.80
2023-04-30T12:46:27.835Z,2.78
2023-04-30T12:47:59.651Z,2.92
2023-04-30T12:49:34.012Z,2.50
2023-04-30T12:51:06.711Z,2.47
2023-04-30T12:52:38.492Z,2.70
2023-04-30T12:54:10.134Z,2.72
2023-04-30T12:55:42.251Z,2.80
2023-04-30T12:57:14.018Z,2.40
2023-04-30T12:58:47.473Z,2.65
2023-04-30T13:00:19.262Z,2.85
2023-04-30T13:01:51.324Z,2.80
2023-04-30T13:03:25.821Z,2.85
2023-04-30T13:04:59.120Z,2.70
2023-04-30T13:06:33.186Z,2.80
2023-04-30T13:08:06.490Z,2.80
2023-04-30T13:09:38.260Z,2.40
2023-04-30T13:11:11.405Z,2.60
2023-04-30T13:12:43.573Z,2.58
2023-04-30T13:14:15.600Z,2.70
2023-04-30T13:15:47.312Z,2.72
2023-04-30T13:17:19.000Z,2.90
2023-04-30T13:18:50.666Z,3.00
2023-04-30T13:20:25.020Z,2.95
2023-04-30T13:21:57.662Z,2.60
2023-04-30T13:23:31.878Z,2.78
2023-04-30T13:25:06.603Z,2.70
2023-04-30T13:26:39.037Z,2.70
2023-04-30T13:28:10.765Z,2.50
2023-04-30T13:29:42.552Z,2.70
2023-04-30T13:31:14.349Z,2.88
2023-04-30T13:32:46.512Z,2.85
2023-04-30T13:34:18.276Z,2.92
2023-04-30T13:35:51.959Z,2.90
2023-04-30T13:37:23.658Z,3.13
2023-04-30T13:38:55.607Z,2.58
2023-04-30T13:40:27.544Z,2.88
2023-04-30T13:41:59.175Z,3.17
2023-04-30T13:43:31.326Z,3.10
2023-04-30T13:45:02.995Z,3.00
2023-04-30T13:46:34.660Z,3.05
2023-04-30T13:48:07.665Z,2.97
2023-04-30T13:49:39.510Z,3.05
2023-04-30T13:51:12.655Z,3.38
2023-04-30T13:52:44.572Z,3.20
2023-04-30T13:54:18.109Z,3.08
2023-04-30T13:55:49.707Z,2.88
2023-04-30T13:57:21.371Z,2.90
2023-04-30T13:58:53.017Z,2.90
2023-04-30T14:00:24.786Z,2.95
2023-04-30T14:01:56.539Z,3.03
2023-04-30T14:03:28.392Z,3.00
2023-04-30T14:05:05.861Z,3.10
2023-04-30T14:06:39.379Z,3.08
2023-04-30T14:08:11.097Z,3.10
2023-04-30T14:09:42.720Z,3.33
2023-04-30T14:11:14.396Z,2.88
2023-04-30T14:12:46.169Z,2.60
2023-04-30T14:14:18.064Z,3.00
2023-04-30T14:15:49.993Z,2.90
2023-04-30T14:17:22.065Z,2.70
2023-04-30T14:18:54.050Z,2.83
2023-04-30T14:20:26.064Z,2.92
2023-04-30T14:21:59.805Z,2.80
2023-04-30T14:23:31.510Z,2.97
2023-04-30T14:25:04.138Z,3.00
2023-04-30T14:26:35.996Z,3.00
2023-04-30T14:28:07.652Z,2.90
2023-04-30T14:29:39.383Z,3.00
2023-04-30T14:31:11.069Z,3.20
2023-04-30T14:32:42.888Z,3.00
2023-04-30T14:34:15.293Z,3.10
2023-04-30T14:35:47.554Z,3.33
2023-04-30T14:37:20.777Z,3.30
2023-04-30T14:38:52.689Z,3.03
2023-04-30T14:40:24.334Z,3.50
2023-04-30T14:41:56.116Z,3.60
2023-04-30T14:43:28.015Z,3.10
2023-04-30T14:44:59.664Z,3.03
2023-04-30T14:46:31.459Z,2.92
2023-04-30T14:48:05.685Z,2.83
2023-04-30T14:49:37.989Z,2.90
2023-04-30T14:51:12.140Z,3.08
2023-04-30T14:52:45.245Z,3.08
2023-04-30T14:54:17.253Z,3.10
2023-04-30T14:55:49.177Z,3.00
2023-04-30T14:57:23.512Z,3.38
2023-04-30T14:58:55.395Z,2.85
2023-04-30T15:00:28.049Z,2.70
2023-04-30T15:02:02.490Z,3.05
2023-04-30T15:03:34.591Z,3.10
2023-04-30T15:05:08.504Z,2.85
2023-04-30T15:06:40.559Z,3.05
2023-04-30T15:08:13.909Z,3.13
2023-04-30T15:09:47.831Z,3.00
2023-04-30T15:11:19.632Z,2.90
2023-04-30T15:12:51.548Z,3.10
2023-04-30T15:14:23.378Z,2.80
2023-04-30T15:15:55.089Z,3.10
2023-04-30T15:17:26.809Z,3.35
2023-04-30T15:18:59.148Z,3.40
2023-04-30T15:20:30.998Z,3.20
2023-04-30T15:22:04.043Z,3.50
2023-04-30T15:23:37.077Z,3.20
2023-04-30T15:25:09.222Z,2.80
2023-04-30T15:26:41.050Z,3.10
2023-04-30T15:28:12.682Z,3.63
2023-04-30T15:29:46.664Z,3.50
2023-04-30T15:31:18.323Z,4.00
2023-04-30T15:32:50.597Z,3.95
2023-04-30T15:34:22.567Z,2.90
2023-04-30T15:35:54.259Z,3.10
2023-04-30T15:37:27.030Z,3.03
2023-04-30T15:39:00.161Z,2.90
2023-04-30T15:40:31.805Z,2.88
2023-04-30T15:42:03.723Z,3.10
2023-04-30T15:43:36.093Z,3.35
2023-04-30T15:45:09.164Z,3.10
2023-04-30T15:46:41.011Z,2.90
2023-04-30T15:48:13.723Z,3.10
2023-04-30T15:49:45.410Z,3.20
2023-04-30T15:51:17.045Z,2.83
2023-04-30T15:52:48.896Z,3.25
2023-04-30T15:54:23.330Z,2.80
2023-04-30T15:55:56.044Z,3.10
2023-04-30T15:57:27.698Z,2.95
2023-04-30T15:58:59.367Z,3.03
2023-04-30T16:00:31.151Z,2.80
2023-04-30T16:02:03.008Z,2.70
2023-04-30T16:03:34.840Z,3.10
2023-04-30T16:05:07.256Z,3.00
2023-04-30T16:06:39.073Z,3.45
2023-04-30T16:08:10.718Z,3.05
2023-04-30T16:09:45.809Z,3.00
2023-04-30T16:11:17.460Z,2.97
2023-04-30T16:12:49.182Z,3.10
2023-04-30T16:14:20.798Z,3.25
2023-04-30T16:15:52.517Z,3.00
2023-04-30T16:17:24.925Z,2.92
2023-04-30T16:18:56.667Z,3.00
2023-04-30T16:20:28.360Z,3.05
2023-04-30T16:22:00.779Z,3.05
2023-04-30T16:23:32.464Z,3.00
2023-04-30T16:25:08.327Z,2.90
2023-04-30T16:26:40.029Z,3.40
2023-04-30T16:28:11.878Z,3.10
2023-04-30T16:29:43.529Z,3.28
2023-04-30T16:31:16.592Z,3.47
2023-04-30T16:32:48.409Z,3.67
2023-04-30T16:34:20.142Z,3.42
2023-04-30T16:35:51.964Z,3.50
2023-04-30T16:37:23.621Z,3.15
2023-04-30T16:38:55.413Z,3.03
2023-04-30T16:40:28.449Z,3.50
2023-04-30T16:42:00.239Z,3.70
2023-04-30T16:43:34.385Z,4.03
2023-04-30T16:45:07.293Z,3.47
2023-04-30T16:46:38.997Z,3.67
2023-04-30T16:48:10.737Z,3.55
2023-04-30T16:49:42.421Z,3.50
2023-04-30T16:51:14.163Z,3.47
2023-04-30T16:52:45.875Z,3.80
2023-04-30T16:54:17.585Z,4.05
2023-04-30T16:55:52.553Z,3.88
2023-04-30T16:57:25.209Z,4.07
2023-04-30T16:58:56.962Z,3.75
2023-04-30T17:00:29.235Z,3.33
2023-04-30T17:02:01.953Z,3.30
2023-04-30T17:03:34.833Z,3.55
2023-04-30T17:05:07.568Z,3.40
2023-04-30T17:06:39.646Z,3.30
2023-04-30T17:08:11.345Z,3.17
2023-04-30T17:09:43.022Z,3.45
2023-04-30T17:11:19.233Z,3.50
2023-04-30T17:12:52.361Z,3.67
2023-04-30T17:14:24.059Z,3.30
2023-04-30T17:16:01.791Z,3.28
2023-04-30T17:17:34.060Z,3.80
2023-04-30T17:19:05.792Z,3.60
2023-04-30T17:20:37.436Z,3.58
2023-04-30T17:22:09.189Z,3.60
2023-04-30T17:23:41.033Z,3.50
2023-04-30T17:25:13.048Z,3.53
2023-04-30T17:26:46.037Z,3.55
2023-04-30T17:28:17.725Z,3.50
2023-04-30T17:29:50.920Z,3.30
2023-04-30T17:31:22.667Z,3.50
2023-04-30T17:32:54.669Z,3.50
2023-04-30T17:34:27.242Z,3.95
2023-04-30T17:35:58.894Z,4.93
2023-04-30T17:37:30.737Z,6.30
2023-04-30T17:39:05.465Z,4.75
2023-04-30T17:40:37.211Z,4.53
2023-04-30T17:42:10.181Z,4.50
2023-04-30T17:43:41.911Z,4.47
2023-04-30T17:45:13.792Z,3.90
2023-04-30T17:46:46.349Z,3.55
2023-04-30T17:48:18.096Z,3.75
2023-04-30T17:49:50.483Z,3.50
2023-04-30T17:51:22.112Z,3.50
2023-04-30T17:52:53.798Z,3.20
2023-04-30T17:54:25.468Z,3.33
2023-04-30T17:55:59.364Z,3.90
2023-04-30T17:57:32.371Z,3.40
2023-04-30T17:59:04.149Z,3.40
2023-04-30T18:00:35.869Z,4.00
2023-04-30T18:02:07.698Z,4.43
2023-04-30T18:03:39.435Z,3.70
2023-04-30T18:05:11.733Z,3.90
2023-04-30T18:06:43.583Z,3.60
2023-04-30T18:08:15.284Z,3.70
2023-04-30T18:09:47.398Z,3.58
2023-04-30T18:11:21.876Z,3.80
2023-04-30T18:12:54.952Z,3.90
2023-04-30T18:14:26.943Z,3.33
2023-04-30T18:15:58.818Z,3.85
2023-04-30T18:17:30.682Z,3.85
2023-04-30T18:19:03.424Z,3.22
2023-04-30T18:20:35.969Z,3.78
2023-04-30T18:22:08.055Z,3.45
2023-04-30T18:23:39.775Z,3.92
2023-04-30T18:25:11.458Z,3.60
2023-04-30T18:26:43.116Z,3.50
2023-04-30T18:28:19.386Z,3.78
2023-04-30T18:29:52.019Z,3.60
2023-04-30T18:31:23.782Z,3.47
2023-04-30T18:32:55.441Z,3.55
2023-04-30T18:34:28.170Z,3.80
2023-04-30T18:36:05.374Z,3.30
2023-04-30T18:37:37.428Z,3.40
2023-04-30T18:39:09.122Z,3.70
2023-04-30T18:40:40.862Z,3.75
2023-04-30T18:42:12.615Z,3.60
2023-04-30T18:43:45.934Z,3.47
2023-04-30T18:45:18.159Z,3.20
2023-04-30T18:46:49.996Z,3.60
2023-04-30T18:48:23.053Z,3.40
2023-04-30T18:49:55.015Z,3.50
2023-04-30T18:51:26.787Z,3.80
2023-04-30T18:52:58.411Z,3.85
2023-04-30T18:54:29.981Z,3.95
2023-04-30T18:56:01.691Z,3.50
2023-04-30T18:57:33.476Z,3.67
2023-04-30T18:59:06.844Z,3.55
2023-04-30T19:00:42.362Z,3.78
2023-04-30T19:02:14.586Z,3.55
2023-04-30T19:03:46.354Z,3.50
2023-04-30T19:05:18.243Z,3.65
2023-04-30T19:06:52.257Z,3.70
2023-04-30T19:08:23.973Z,3.40
2023-04-30T19:09:55.853Z,3.67
2023-04-30T19:11:28.001Z,3.80
2023-04-30T19:12:59.591Z,3.38
2023-04-30T19:14:32.838Z,3.42
2023-04-30T19:16:04.726Z,3.38
2023-04-30T19:17:36.466Z,3.78
2023-04-30T19:19:08.136Z,3.70
2023-04-30T19:20:39.779Z,3.60
2023-04-30T19:22:11.753Z,3.60
2023-04-30T19:23:43.465Z,3.75
2023-04-30T19:25:15.104Z,3.40
2023-04-30T19:26:47.149Z,3.30
2023-04-30T19:28:18.782Z,3.53
2023-04-30T19:29:53.339Z,3.40
2023-04-30T19:31:25.432Z,3.67
2023-04-30T19:32:57.100Z,3.80
2023-04-30T19:34:28.801Z,3.65
2023-04-30T19:36:00.814Z,3.70
2023-04-30T19:37:32.478Z,3.60
2023-04-30T19:39:05.963Z,3.67
2023-04-30T19:40:37.648Z,3.53
2023-04-30T19:42:09.336Z,3.60
2023-04-30T19:43:40.988Z,3.60
2023-04-30T19:45:14.016Z,3.58
2023-04-30T19:46:47.441Z,3.67
2023-04-30T19:48:19.484Z,3.53
2023-04-30T19:49:51.379Z,3.53
2023-04-30T19:51:23.057Z,3.60
2023-04-30T19:52:54.720Z,3.65
2023-04-30T19:54:26.299Z,3.70
2023-04-30T19:55:59.462Z,3.70
2023-04-30T19:57:34.880Z,3.50
2023-04-30T19:59:06.687Z,3.75
2023-04-30T20:00:41.578Z,3.50
2023-04-30T20:02:13.726Z,3.60
2023-04-30T20:03:45.714Z,3.70
2023-04-30T20:05:17.481Z,3.65
2023-04-30T20:06:55.962Z,3.65
2023-04-30T20:08:28.045Z,3.63
2023-04-30T20:09:59.672Z,3.60
2023-04-30T20:11:33.711Z,3.35
2023-04-30T20:13:05.737Z,3.83
2023-04-30T20:14:37.483Z,3.83
2023-04-30T20:16:12.553Z,3.70
2023-04-30T20:17:48.199Z,3.65
2023-04-30T20:19:20.449Z,3.60
2023-04-30T20:20:52.460Z,3.60
2023-04-30T20:22:24.136Z,3.38
2023-04-30T20:23:57.985Z,3.58
2023-04-30T20:25:30.337Z,4.13
2023-04-30T20:27:04.838Z,3.80
2023-04-30T20:28:36.883Z,3.90
2023-04-30T20:30:11.929Z,3.60